sensor_id;sensor_type;location;lat;lon;timestamp;pressure;altitude;pressure_sealevel;temperature;humidity
68525;BME280;55524;51.380;13.372;2023-03-23T00:00:10;99707.28;;;11.56;77.31
68525;BME280;55524;51.380;13.372;2023-03-23T00:02:36;99711.53;;;11.59;77.42
68525;BME280;55524;51.380;13.372;2023-03-23T00:05:04;99719.03;;;11.51;78.24
68525;BME280;55524;51.380;13.372;2023-03-23T00:07:33;99713.13;;;11.46;78.18
68525;BME280;55524;51.380;13.372;2023-03-23T00:09:59;99711.44;;;11.45;78.36
68525;BME280;55524;51.380;13.372;2023-03-23T00:12:31;99719.28;;;11.46;78.51
68525;BME280;55524;51.380;13.372;2023-03-23T00:15:03;99719.44;;;11.43;79.04
68525;BME280;55524;51.380;13.372;2023-03-23T00:17:31;99713.06;;;11.47;78.35
68525;BME280;55524;51.380;13.372;2023-03-23T00:20:01;99710.41;;;11.47;78.20
68525;BME280;55524;51.380;13.372;2023-03-23T00:22:30;99715.44;;;11.52;78.12
68525;BME280;55524;51.380;13.372;2023-03-23T00:24:57;99696.75;;;11.55;77.31
68525;BME280;55524;51.380;13.372;2023-03-23T00:27:23;99694.56;;;11.63;76.89
68525;BME280;55524;51.380;13.372;2023-03-23T00:29:50;99691.84;;;11.65;76.98
68525;BME280;55524;51.380;13.372;2023-03-23T00:32:24;99700.47;;;11.68;76.88
68525;BME280;55524;51.380;13.372;2023-03-23T00:34:56;99699.53;;;11.69;77.07
68525;BME280;55524;51.380;13.372;2023-03-23T00:37:26;99702.75;;;11.58;78.29
68525;BME280;55524;51.380;13.372;2023-03-23T00:39:53;99693.72;;;11.63;78.10
68525;BME280;55524;51.380;13.372;2023-03-23T00:42:23;99695.75;;;11.57;78.97
68525;BME280;55524;51.380;13.372;2023-03-23T00:44:50;99689.69;;;11.55;78.63
68525;BME280;55524;51.380;13.372;2023-03-23T00:47:19;99687.97;;;11.54;78.39
68525;BME280;55524;51.380;13.372;2023-03-23T00:49:46;99682.97;;;11.66;78.21
68525;BME280;55524;51.380;13.372;2023-03-23T00:52:13;99665.81;;;11.73;77.30
68525;BME280;55524;51.380;13.372;2023-03-23T00:54:39;99661.13;;;11.78;76.47
68525;BME280;55524;51.380;13.372;2023-03-23T00:57:06;99663.06;;;11.74;77.22
68525;BME280;55524;51.380;13.372;2023-03-23T00:59:32;99666.06;;;11.68;77.56
68525;BME280;55524;51.380;13.372;2023-03-23T01:01:58;99663.22;;;11.71;77.99
68525;BME280;55524;51.380;13.372;2023-03-23T01:04:25;99662.47;;;11.69;77.63
68525;BME280;55524;51.380;13.372;2023-03-23T01:06:54;99664.75;;;11.60;77.85
68525;BME280;55524;51.380;13.372;2023-03-23T01:09:22;99664.41;;;11.50;78.83
68525;BME280;55524;51.380;13.372;2023-03-23T01:11:50;99663.88;;;11.43;79.11
68525;BME280;55524;51.380;13.372;2023-03-23T01:14:18;99663.13;;;11.41;80.06
68525;BME280;55524;51.380;13.372;2023-03-23T01:16:45;99654.41;;;11.39;78.81
68525;BME280;55524;51.380;13.372;2023-03-23T01:19:12;99649.03;;;11.41;79.24
68525;BME280;55524;51.380;13.372;2023-03-23T01:21:38;99638.97;;;11.47;78.55
68525;BME280;55524;51.380;13.372;2023-03-23T01:24:05;99636.16;;;11.50;77.71
68525;BME280;55524;51.380;13.372;2023-03-23T01:26:32;99635.16;;;11.53;77.75
68525;BME280;55524;51.380;13.372;2023-03-23T01:28:58;99637.00;;;11.51;77.83
68525;BME280;55524;51.380;13.372;2023-03-23T01:31:26;99628.81;;;11.55;77.02
68525;BME280;55524;51.380;13.372;2023-03-23T01:33:53;99646.00;;;11.48;77.30
68525;BME280;55524;51.380;13.372;2023-03-23T01:36:26;99647.09;;;11.44;77.74
68525;BME280;55524;51.380;13.372;2023-03-23T01:38:55;99641.31;;;11.36;78.63
68525;BME280;55524;51.380;13.372;2023-03-23T01:41:23;99639.72;;;11.33;78.76
68525;BME280;55524;51.380;13.372;2023-03-23T01:44:07;99635.13;;;11.37;77.28
68525;BME280;55524;51.380;13.372;2023-03-23T01:46:35;99633.22;;;11.39;77.95
68525;BME280;55524;51.380;13.372;2023-03-23T01:49:15;99620.16;;;11.36;77.56
68525;BME280;55524;51.380;13.372;2023-03-23T01:51:53;99613.16;;;11.35;77.35
68525;BME280;55524;51.380;13.372;2023-03-23T01:54:22;99625.44;;;11.36;77.90
68525;BME280;55524;51.380;13.372;2023-03-23T01:57:07;99625.91;;;11.28;78.48
68525;BME280;55524;51.380;13.372;2023-03-23T01:59:37;99630.72;;;11.20;78.40
68525;BME280;55524;51.380;13.372;2023-03-23T02:02:04;99632.69;;;11.17;78.69
68525;BME280;55524;51.380;13.372;2023-03-23T02:04:31;99637.03;;;11.18;78.39
68525;BME280;55524;51.380;13.372;2023-03-23T02:06:59;99624.66;;;11.18;77.92
68525;BME280;55524;51.380;13.372;2023-03-23T02:09:27;99623.22;;;11.13;78.74
68525;BME280;55524;51.380;13.372;2023-03-23T02:11:55;99623.38;;;11.10;78.54
68525;BME280;55524;51.380;13.372;2023-03-23T02:14:23;99616.31;;;11.26;77.44
68525;BME280;55524;51.380;13.372;2023-03-23T02:31:38;99602.22;;;11.10;76.83
68525;BME280;55524;51.380;13.372;2023-03-23T02:34:20;99609.50;;;11.04;77.68
68525;BME280;55524;51.380;13.372;2023-03-23T02:36:53;99608.91;;;10.99;77.25
68525;BME280;55524;51.380;13.372;2023-03-23T02:39:25;99603.72;;;10.98;76.73
68525;BME280;55524;51.380;13.372;2023-03-23T02:42:08;99606.59;;;10.93;77.92
68525;BME280;55524;51.380;13.372;2023-03-23T02:44:37;99605.81;;;10.91;77.48
68525;BME280;55524;51.380;13.372;2023-03-23T02:47:20;99616.94;;;10.80;79.01
68525;BME280;55524;51.380;13.372;2023-03-23T02:49:50;99601.06;;;10.80;78.64
68525;BME280;55524;51.380;13.372;2023-03-23T02:52:21;99602.13;;;10.78;79.27
68525;BME280;55524;51.380;13.372;2023-03-23T02:54:50;99604.91;;;10.75;79.45
68525;BME280;55524;51.380;13.372;2023-03-23T02:57:18;99594.78;;;10.83;78.47
68525;BME280;55524;51.380;13.372;2023-03-23T02:59:45;99586.72;;;10.86;78.22
68525;BME280;55524;51.380;13.372;2023-03-23T03:02:38;99580.63;;;10.84;77.30
68525;BME280;55524;51.380;13.372;2023-03-23T03:11:04;99574.22;;;11.05;76.44
68525;BME280;55524;51.380;13.372;2023-03-23T03:21:40;99568.97;;;11.21;75.48
68525;BME280;55524;51.380;13.372;2023-03-23T03:24:08;99558.13;;;11.26;75.24
68525;BME280;55524;51.380;13.372;2023-03-23T03:26:39;99562.56;;;11.25;75.20
68525;BME280;55524;51.380;13.372;2023-03-23T03:29:07;99561.09;;;11.20;75.13
68525;BME280;55524;51.380;13.372;2023-03-23T03:31:39;99551.47;;;11.19;74.92
68525;BME280;55524;51.380;13.372;2023-03-23T03:34:11;99557.09;;;11.13;75.53
68525;BME280;55524;51.380;13.372;2023-03-23T03:36:38;99555.53;;;11.08;75.80
68525;BME280;55524;51.380;13.372;2023-03-23T03:39:08;99565.59;;;11.02;75.54
68525;BME280;55524;51.380;13.372;2023-03-23T03:41:36;99572.06;;;10.96;75.70
68525;BME280;55524;51.380;13.372;2023-03-23T03:44:04;99563.63;;;10.90;76.34
68525;BME280;55524;51.380;13.372;2023-03-23T03:46:32;99563.53;;;10.91;76.78
68525;BME280;55524;51.380;13.372;2023-03-23T03:48:59;99547.94;;;11.02;75.57
68525;BME280;55524;51.380;13.372;2023-03-23T03:51:27;99541.47;;;11.08;75.17
68525;BME280;55524;51.380;13.372;2023-03-23T03:53:53;99544.88;;;11.10;75.69
68525;BME280;55524;51.380;13.372;2023-03-23T03:56:20;99533.78;;;11.03;75.64
68525;BME280;55524;51.380;13.372;2023-03-23T03:58:48;99534.47;;;11.07;75.47
68525;BME280;55524;51.380;13.372;2023-03-23T04:01:16;99532.63;;;11.09;74.79
68525;BME280;55524;51.380;13.372;2023-03-23T04:03:43;99532.53;;;11.11;74.63
68525;BME280;55524;51.380;13.372;2023-03-23T04:06:09;99523.22;;;11.19;74.00
68525;BME280;55524;51.380;13.372;2023-03-23T04:08:36;99526.31;;;11.27;74.42
68525;BME280;55524;51.380;13.372;2023-03-23T04:11:04;99551.88;;;11.11;75.47
68525;BME280;55524;51.380;13.372;2023-03-23T04:13:31;99551.34;;;11.04;76.15
68525;BME280;55524;51.380;13.372;2023-03-23T04:15:57;99550.00;;;10.97;76.60
68525;BME280;55524;51.380;13.372;2023-03-23T04:18:24;99556.38;;;10.93;76.50
68525;BME280;55524;51.380;13.372;2023-03-23T04:20:51;99544.47;;;10.84;77.13
68525;BME280;55524;51.380;13.372;2023-03-23T04:23:18;99537.50;;;10.83;77.30
68525;BME280;55524;51.380;13.372;2023-03-23T04:25:49;99548.84;;;10.86;77.55
68525;BME280;55524;51.380;13.372;2023-03-23T04:28:17;99546.22;;;10.86;77.06
68525;BME280;55524;51.380;13.372;2023-03-23T04:30:46;99554.84;;;10.89;77.45
68525;BME280;55524;51.380;13.372;2023-03-23T04:33:15;99548.00;;;10.85;77.99
68525;BME280;55524;51.380;13.372;2023-03-23T04:35:43;99551.41;;;10.87;77.36
68525;BME280;55524;51.380;13.372;2023-03-23T04:38:12;99545.81;;;10.93;77.41
68525;BME280;55524;51.380;13.372;2023-03-23T04:40:41;99535.47;;;11.04;76.72
68525;BME280;55524;51.380;13.372;2023-03-23T04:43:07;99529.72;;;11.14;76.22
68525;BME280;55524;51.380;13.372;2023-03-23T04:45:35;99519.63;;;11.20;76.22
68525;BME280;55524;51.380;13.372;2023-03-23T04:48:04;99511.22;;;11.29;76.01
68525;BME280;55524;51.380;13.372;2023-03-23T04:50:32;99517.44;;;11.28;75.87
68525;BME280;55524;51.380;13.372;2023-03-23T04:53:03;99534.84;;;11.17;77.77
68525;BME280;55524;51.380;13.372;2023-03-23T04:55:31;99554.78;;;11.06;78.54
68525;BME280;55524;51.380;13.372;2023-03-23T04:57:58;99557.28;;;10.92;80.25
68525;BME280;55524;51.380;13.372;2023-03-23T05:00:27;99576.28;;;10.83;80.84
68525;BME280;55524;51.380;13.372;2023-03-23T05:02:53;99567.59;;;10.81;80.83
68525;BME280;55524;51.380;13.372;2023-03-23T05:05:22;99559.72;;;10.79;80.61
68525;BME280;55524;51.380;13.372;2023-03-23T05:07:49;99552.84;;;10.93;78.79
68525;BME280;55524;51.380;13.372;2023-03-23T05:10:16;99542.66;;;11.02;78.07
68525;BME280;55524;51.380;13.372;2023-03-23T05:12:43;99540.88;;;11.19;77.37
68525;BME280;55524;51.380;13.372;2023-03-23T05:15:12;99550.03;;;11.29;77.94
68525;BME280;55524;51.380;13.372;2023-03-23T05:17:38;99536.72;;;11.46;77.10
68525;BME280;55524;51.380;13.372;2023-03-23T05:20:07;99523.66;;;11.59;75.57
68525;BME280;55524;51.380;13.372;2023-03-23T05:22:37;99528.19;;;11.73;75.95
68525;BME280;55524;51.380;13.372;2023-03-23T05:25:05;99538.09;;;11.85;75.41
68525;BME280;55524;51.380;13.372;2023-03-23T05:27:32;99524.41;;;11.93;74.46
68525;BME280;55524;51.380;13.372;2023-03-23T05:29:58;99519.09;;;12.09;73.71
68525;BME280;55524;51.380;13.372;2023-03-23T05:32:26;99513.63;;;12.26;73.17
68525;BME280;55524;51.380;13.372;2023-03-23T05:34:59;99525.06;;;12.26;72.95
68525;BME280;55524;51.380;13.372;2023-03-23T05:37:27;99533.63;;;12.32;73.01
68525;BME280;55524;51.380;13.372;2023-03-23T05:39:58;99522.09;;;12.33;72.37
68525;BME280;55524;51.380;13.372;2023-03-23T05:42:27;99535.31;;;12.33;73.17
68525;BME280;55524;51.380;13.372;2023-03-23T05:44:53;99535.78;;;12.39;72.49
68525;BME280;55524;51.380;13.372;2023-03-23T05:47:19;99531.44;;;12.38;72.48
68525;BME280;55524;51.380;13.372;2023-03-23T05:49:46;99531.38;;;12.40;73.04
68525;BME280;55524;51.380;13.372;2023-03-23T05:52:12;99537.69;;;12.37;72.95
68525;BME280;55524;51.380;13.372;2023-03-23T05:54:39;99537.69;;;12.37;73.61
68525;BME280;55524;51.380;13.372;2023-03-23T05:57:07;99538.72;;;12.35;73.69
68525;BME280;55524;51.380;13.372;2023-03-23T05:59:35;99529.84;;;12.36;73.84
68525;BME280;55524;51.380;13.372;2023-03-23T06:02:01;99522.47;;;12.41;73.16
68525;BME280;55524;51.380;13.372;2023-03-23T06:04:28;99520.69;;;12.41;72.98
68525;BME280;55524;51.380;13.372;2023-03-23T06:06:54;99514.13;;;12.47;72.64
68525;BME280;55524;51.380;13.372;2023-03-23T06:09:21;99524.50;;;12.51;71.89
68525;BME280;55524;51.380;13.372;2023-03-23T06:11:49;99527.78;;;12.55;72.35
68525;BME280;55524;51.380;13.372;2023-03-23T06:14:15;99530.91;;;12.62;72.67
68525;BME280;55524;51.380;13.372;2023-03-23T06:16:43;99504.44;;;12.76;71.11
68525;BME280;55524;51.380;13.372;2023-03-23T06:19:09;99493.16;;;12.87;70.15
68525;BME280;55524;51.380;13.372;2023-03-23T06:21:37;99498.56;;;12.99;69.61
68525;BME280;55524;51.380;13.372;2023-03-23T06:24:04;99493.63;;;13.08;69.36
68525;BME280;55524;51.380;13.372;2023-03-23T06:26:36;99495.88;;;13.14;68.92
68525;BME280;55524;51.380;13.372;2023-03-23T06:29:04;99510.56;;;13.19;68.89
68525;BME280;55524;51.380;13.372;2023-03-23T06:31:47;99514.25;;;13.17;69.58
68525;BME280;55524;51.380;13.372;2023-03-23T06:34:14;99517.88;;;13.16;69.71
68525;BME280;55524;51.380;13.372;2023-03-23T06:36:40;99526.22;;;13.24;70.11
68525;BME280;55524;51.380;13.372;2023-03-23T06:39:09;99517.66;;;13.33;68.13
68525;BME280;55524;51.380;13.372;2023-03-23T06:41:35;99514.72;;;13.38;67.97
68525;BME280;55524;51.380;13.372;2023-03-23T06:44:02;99508.06;;;13.45;68.31
68525;BME280;55524;51.380;13.372;2023-03-23T06:46:29;99521.63;;;13.55;68.30
68525;BME280;55524;51.380;13.372;2023-03-23T06:48:56;99522.28;;;13.58;67.94
68525;BME280;55524;51.380;13.372;2023-03-23T06:51:23;99517.09;;;13.69;66.58
68525;BME280;55524;51.380;13.372;2023-03-23T06:53:49;99519.56;;;13.72;66.76
68525;BME280;55524;51.380;13.372;2023-03-23T06:56:15;99538.91;;;13.74;68.22
68525;BME280;55524;51.380;13.372;2023-03-23T06:58:42;99545.25;;;13.72;68.39
68525;BME280;55524;51.380;13.372;2023-03-23T07:01:08;99551.34;;;13.74;68.77
68525;BME280;55524;51.380;13.372;2023-03-23T07:03:35;99545.72;;;13.78;67.82
68525;BME280;55524;51.380;13.372;2023-03-23T07:06:03;99564.81;;;13.71;69.51
68525;BME280;55524;51.380;13.372;2023-03-23T07:08:30;99585.00;;;13.73;70.69
68525;BME280;55524;51.380;13.372;2023-03-23T07:10:56;99570.13;;;13.71;69.61
68525;BME280;55524;51.380;13.372;2023-03-23T07:13:23;99582.28;;;13.61;70.15
68525;BME280;55524;51.380;13.372;2023-03-23T07:15:49;99591.38;;;13.57;70.18
68525;BME280;55524;51.380;13.372;2023-03-23T07:18:16;99602.41;;;13.50;72.15
68525;BME280;55524;51.380;13.372;2023-03-23T07:20:42;99615.88;;;13.47;73.24
68525;BME280;55524;51.380;13.372;2023-03-23T07:23:09;99613.22;;;13.47;72.11
68525;BME280;55524;51.380;13.372;2023-03-23T07:25:35;99626.66;;;13.44;73.35
68525;BME280;55524;51.380;13.372;2023-03-23T07:28:03;99640.59;;;13.34;74.21
68525;BME280;55524;51.380;13.372;2023-03-23T07:30:29;99650.81;;;13.25;75.87
68525;BME280;55524;51.380;13.372;2023-03-23T07:32:57;99650.22;;;13.20;75.17
68525;BME280;55524;51.380;13.372;2023-03-23T07:35:24;99660.84;;;13.20;75.61
68525;BME280;55524;51.380;13.372;2023-03-23T07:37:51;99653.72;;;13.21;75.22
68525;BME280;55524;51.380;13.372;2023-03-23T07:40:18;99644.06;;;13.20;74.90
68525;BME280;55524;51.380;13.372;2023-03-23T07:42:50;99637.66;;;13.24;74.43
68525;BME280;55524;51.380;13.372;2023-03-23T07:45:17;99646.28;;;13.27;75.96
68525;BME280;55524;51.380;13.372;2023-03-23T07:47:43;99652.44;;;13.28;75.77
68525;BME280;55524;51.380;13.372;2023-03-23T07:50:10;99663.69;;;13.17;77.06
68525;BME280;55524;51.380;13.372;2023-03-23T07:52:38;99677.78;;;13.18;78.73
68525;BME280;55524;51.380;13.372;2023-03-23T07:55:06;99678.56;;;13.20;79.27
68525;BME280;55524;51.380;13.372;2023-03-23T07:57:34;99666.91;;;13.22;77.94
68525;BME280;55524;51.380;13.372;2023-03-23T08:00:01;99662.88;;;13.31;78.18
68525;BME280;55524;51.380;13.372;2023-03-23T08:02:29;99671.88;;;13.28;78.26
68525;BME280;55524;51.380;13.372;2023-03-23T08:04:57;99670.25;;;13.26;78.44
68525;BME280;55524;51.380;13.372;2023-03-23T08:07:26;99678.31;;;13.24;78.84
68525;BME280;55524;51.380;13.372;2023-03-23T08:09:53;99677.06;;;13.16;79.53
68525;BME280;55524;51.380;13.372;2023-03-23T08:12:19;99683.94;;;13.18;80.43
68525;BME280;55524;51.380;13.372;2023-03-23T08:14:46;99691.16;;;13.16;82.38
68525;BME280;55524;51.380;13.372;2023-03-23T08:17:14;99692.41;;;13.11;81.77
68525;BME280;55524;51.380;13.372;2023-03-23T08:19:40;99700.53;;;13.22;83.28
68525;BME280;55524;51.380;13.372;2023-03-23T08:22:09;99706.69;;;13.22;84.56
68525;BME280;55524;51.380;13.372;2023-03-23T08:24:35;99694.91;;;13.28;83.78
68525;BME280;55524;51.380;13.372;2023-03-23T08:27:02;99694.25;;;13.24;82.26
68525;BME280;55524;51.380;13.372;2023-03-23T08:29:28;99683.06;;;13.34;82.41
68525;BME280;55524;51.380;13.372;2023-03-23T08:31:54;99677.28;;;13.27;80.52
68525;BME280;55524;51.380;13.372;2023-03-23T08:34:22;99682.78;;;13.24;80.89
68525;BME280;55524;51.380;13.372;2023-03-23T08:36:49;99688.75;;;13.27;82.07
68525;BME280;55524;51.380;13.372;2023-03-23T08:39:17;99693.00;;;13.30;81.25
68525;BME280;55524;51.380;13.372;2023-03-23T08:41:44;99697.66;;;13.26;81.89
68525;BME280;55524;51.380;13.372;2023-03-23T08:44:11;99682.66;;;13.25;81.82
68525;BME280;55524;51.380;13.372;2023-03-23T08:46:38;99689.78;;;13.25;82.65
68525;BME280;55524;51.380;13.372;2023-03-23T08:49:05;99703.72;;;13.28;85.04
68525;BME280;55524;51.380;13.372;2023-03-23T08:51:32;99701.91;;;13.29;84.86
68525;BME280;55524;51.380;13.372;2023-03-23T08:53:58;99689.59;;;13.28;84.06
68525;BME280;55524;51.380;13.372;2023-03-23T08:56:25;99696.03;;;13.24;84.10
68525;BME280;55524;51.380;13.372;2023-03-23T08:58:52;99691.31;;;13.29;84.30
68525;BME280;55524;51.380;13.372;2023-03-23T09:01:18;99699.47;;;13.40;86.26
68525;BME280;55524;51.380;13.372;2023-03-23T09:03:45;99692.28;;;13.42;84.81
68525;BME280;55524;51.380;13.372;2023-03-23T09:06:11;99692.75;;;13.49;85.63
68525;BME280;55524;51.380;13.372;2023-03-23T09:08:38;99693.50;;;13.65;84.49
68525;BME280;55524;51.380;13.372;2023-03-23T09:11:07;99675.94;;;13.77;83.31
68525;BME280;55524;51.380;13.372;2023-03-23T09:13:38;99673.47;;;13.88;81.56
68525;BME280;55524;51.380;13.372;2023-03-23T09:16:05;99675.28;;;13.88;81.22
68525;BME280;55524;51.380;13.372;2023-03-23T09:18:32;99685.53;;;13.94;81.60
68525;BME280;55524;51.380;13.372;2023-03-23T09:20:59;99673.88;;;13.82;81.19
68525;BME280;55524;51.380;13.372;2023-03-23T09:23:27;99676.78;;;13.77;79.59
68525;BME280;55524;51.380;13.372;2023-03-23T09:25:54;99679.72;;;13.87;81.07
68525;BME280;55524;51.380;13.372;2023-03-23T09:28:20;99667.84;;;13.93;79.66
68525;BME280;55524;51.380;13.372;2023-03-23T09:30:47;99669.78;;;13.91;79.48
68525;BME280;55524;51.380;13.372;2023-03-23T09:33:14;99691.44;;;14.12;80.14
68525;BME280;55524;51.380;13.372;2023-03-23T09:35:41;99674.06;;;14.20;79.52
68525;BME280;55524;51.380;13.372;2023-03-23T09:38:09;99673.75;;;14.25;79.05
68525;BME280;55524;51.380;13.372;2023-03-23T09:40:50;99670.50;;;14.34;78.26
68525;BME280;55524;51.380;13.372;2023-03-23T09:43:53;99668.66;;;14.22;77.96
68525;BME280;55524;51.380;13.372;2023-03-23T09:52:16;99652.63;;;14.09;76.96
68525;BME280;55524;51.380;13.372;2023-03-23T10:00:10;99654.88;;;14.30;77.35
68525;BME280;55524;51.380;13.372;2023-03-23T10:03:00;99655.44;;;14.47;76.67
68525;BME280;55524;51.380;13.372;2023-03-23T10:08:02;99652.91;;;14.73;75.92
68525;BME280;55524;51.380;13.372;2023-03-23T10:15:50;99632.81;;;15.07;73.72
68525;BME280;55524;51.380;13.372;2023-03-23T10:21:05;99617.69;;;15.33;71.40
68525;BME280;55524;51.380;13.372;2023-03-23T10:26:31;99592.41;;;15.77;70.20
68525;BME280;55524;51.380;13.372;2023-03-23T10:29:14;99581.91;;;15.87;69.16
68525;BME280;55524;51.380;13.372;2023-03-23T10:32:12;99578.34;;;15.99;69.21
68525;BME280;55524;51.380;13.372;2023-03-23T10:35:17;99554.53;;;15.85;66.69
68525;BME280;55524;51.380;13.372;2023-03-23T10:37:49;99573.19;;;15.85;68.34
68525;BME280;55524;51.380;13.372;2023-03-23T10:40:21;99561.59;;;15.73;68.63
68525;BME280;55524;51.380;13.372;2023-03-23T10:42:50;99574.19;;;15.58;69.17
68525;BME280;55524;51.380;13.372;2023-03-23T10:45:25;99574.72;;;15.50;69.33
68525;BME280;55524;51.380;13.372;2023-03-23T10:48:08;99593.19;;;15.41;69.87
68525;BME280;55524;51.380;13.372;2023-03-23T10:50:38;99604.94;;;15.25;70.19
68525;BME280;55524;51.380;13.372;2023-03-23T10:53:20;99586.38;;;15.24;69.51
68525;BME280;55524;51.380;13.372;2023-03-23T10:55:47;99599.94;;;15.21;70.38
68525;BME280;55524;51.380;13.372;2023-03-23T10:58:27;99599.38;;;15.16;70.47
68525;BME280;55524;51.380;13.372;2023-03-23T11:00:58;99591.94;;;15.08;70.09
68525;BME280;55524;51.380;13.372;2023-03-23T11:06:08;99621.44;;;15.18;71.70
68525;BME280;55524;51.380;13.372;2023-03-23T11:08:38;99614.41;;;15.17;71.18
68525;BME280;55524;51.380;13.372;2023-03-23T11:11:40;99609.50;;;15.11;70.92
68525;BME280;55524;51.380;13.372;2023-03-23T11:14:29;99638.66;;;14.99;71.58
68525;BME280;55524;51.380;13.372;2023-03-23T11:16:57;99636.66;;;15.03;71.15
68525;BME280;55524;51.380;13.372;2023-03-23T11:19:33;99635.59;;;15.06;71.71
68525;BME280;55524;51.380;13.372;2023-03-23T11:24:36;99655.91;;;15.19;72.39
68525;BME280;55524;51.380;13.372;2023-03-23T11:27:04;99642.81;;;15.04;71.79
68525;BME280;55524;51.380;13.372;2023-03-23T11:29:34;99638.13;;;15.07;72.11
68525;BME280;55524;51.380;13.372;2023-03-23T11:32:05;99655.91;;;15.07;73.12
68525;BME280;55524;51.380;13.372;2023-03-23T11:34:35;99643.91;;;15.01;72.26
68525;BME280;55524;51.380;13.372;2023-03-23T11:50:33;99641.53;;;14.96;73.61
68525;BME280;55524;51.380;13.372;2023-03-23T11:58:46;99624.63;;;15.23;71.91
68525;BME280;55524;51.380;13.372;2023-03-23T12:10:10;99611.41;;;15.34;70.55
68525;BME280;55524;51.380;13.372;2023-03-23T12:15:33;99643.47;;;15.45;71.38
68525;BME280;55524;51.380;13.372;2023-03-23T12:21:04;99629.47;;;15.55;71.28
68525;BME280;55524;51.380;13.372;2023-03-23T12:26:35;99612.84;;;15.64;70.13
68525;BME280;55524;51.380;13.372;2023-03-23T12:42:25;99616.44;;;15.88;69.69
68525;BME280;55524;51.380;13.372;2023-03-23T12:55:53;99601.13;;;16.03;69.49
68525;BME280;55524;51.380;13.372;2023-03-23T12:58:25;99610.44;;;15.97;70.14
68525;BME280;55524;51.380;13.372;2023-03-23T13:01:23;99597.78;;;15.88;69.92
68525;BME280;55524;51.380;13.372;2023-03-23T13:03:57;99591.34;;;16.04;69.58
68525;BME280;55524;51.380;13.372;2023-03-23T13:06:47;99592.81;;;16.08;69.18
68525;BME280;55524;51.380;13.372;2023-03-23T13:09:30;99595.22;;;15.87;70.01
68525;BME280;55524;51.380;13.372;2023-03-23T13:12:02;99593.44;;;15.74;70.67
68525;BME280;55524;51.380;13.372;2023-03-23T13:20:15;99591.97;;;15.70;71.04
68525;BME280;55524;51.380;13.372;2023-03-23T13:23:11;99607.97;;;15.58;71.38
68525;BME280;55524;51.380;13.372;2023-03-23T13:26:13;99620.13;;;15.49;72.17
68525;BME280;55524;51.380;13.372;2023-03-23T13:28:54;99625.47;;;15.49;71.93
68525;BME280;55524;51.380;13.372;2023-03-23T13:31:25;99629.59;;;15.66;71.85
68525;BME280;55524;51.380;13.372;2023-03-23T13:37:01;99630.41;;;15.92;70.23
68525;BME280;55524;51.380;13.372;2023-03-23T13:39:35;99600.34;;;16.14;69.30
68525;BME280;55524;51.380;13.372;2023-03-23T13:45:43;99608.69;;;16.33;69.11
68525;BME280;55524;51.380;13.372;2023-03-23T13:47:45;99593.22;;;16.50;68.55
68525;BME280;55524;51.380;13.372;2023-03-23T13:50:43;99563.50;;;16.89;66.53
68525;BME280;55524;51.380;13.372;2023-03-23T13:53:26;99539.50;;;16.54;65.81
68525;BME280;55524;51.380;13.372;2023-03-23T13:56:19;99550.91;;;16.45;66.86
68525;BME280;55524;51.380;13.372;2023-03-23T13:58:51;99565.31;;;16.42;66.94
68525;BME280;55524;51.380;13.372;2023-03-23T14:01:35;99573.69;;;16.14;67.51
68525;BME280;55524;51.380;13.372;2023-03-23T14:04:05;99555.06;;;16.60;67.01
68525;BME280;55524;51.380;13.372;2023-03-23T14:06:36;99549.94;;;16.46;66.57
68525;BME280;55524;51.380;13.372;2023-03-23T14:11:57;99549.38;;;16.30;65.31
68525;BME280;55524;51.380;13.372;2023-03-23T14:14:28;99554.81;;;16.17;65.62
68525;BME280;55524;51.380;13.372;2023-03-23T14:17:16;99560.19;;;16.04;67.19
68525;BME280;55524;51.380;13.372;2023-03-23T14:19:50;99561.91;;;15.81;66.63
68525;BME280;55524;51.380;13.372;2023-03-23T14:22:33;99564.38;;;15.71;66.53
68525;BME280;55524;51.380;13.372;2023-03-23T14:25:12;99561.38;;;15.76;67.36
68525;BME280;55524;51.380;13.372;2023-03-23T14:27:39;99582.41;;;15.68;68.13
68525;BME280;55524;51.380;13.372;2023-03-23T14:30:13;99571.31;;;15.61;67.58
68525;BME280;55524;51.380;13.372;2023-03-23T14:32:39;99590.38;;;15.55;68.32
68525;BME280;55524;51.380;13.372;2023-03-23T14:35:29;99600.63;;;15.48;68.55
68525;BME280;55524;51.380;13.372;2023-03-23T14:37:56;99598.41;;;15.42;69.04
68525;BME280;55524;51.380;13.372;2023-03-23T14:40:25;99605.88;;;15.37;69.62
68525;BME280;55524;51.380;13.372;2023-03-23T14:42:52;99600.94;;;15.44;69.73
68525;BME280;55524;51.380;13.372;2023-03-23T14:45:21;99601.50;;;15.49;69.91
68525;BME280;55524;51.380;13.372;2023-03-23T14:47:53;99592.00;;;15.45;68.89
68525;BME280;55524;51.380;13.372;2023-03-23T14:50:39;99573.34;;;15.58;68.05
68525;BME280;55524;51.380;13.372;2023-03-23T14:53:32;99564.84;;;15.53;67.75
68525;BME280;55524;51.380;13.372;2023-03-23T14:56:02;99558.97;;;15.47;66.63
68525;BME280;55524;51.380;13.372;2023-03-23T14:58:30;99558.56;;;15.41;65.08
68525;BME280;55524;51.380;13.372;2023-03-23T15:01:07;99564.84;;;15.40;65.52
68525;BME280;55524;51.380;13.372;2023-03-23T15:03:40;99572.63;;;15.43;66.48
68525;BME280;55524;51.380;13.372;2023-03-23T15:06:19;99563.34;;;15.48;64.97
68525;BME280;55524;51.380;13.372;2023-03-23T15:08:48;99564.84;;;15.53;65.38
68525;BME280;55524;51.380;13.372;2023-03-23T15:13:47;99574.06;;;15.60;64.49
68525;BME280;55524;51.380;13.372;2023-03-23T15:16:22;99589.03;;;15.49;65.72
68525;BME280;55524;51.380;13.372;2023-03-23T15:18:53;99591.69;;;15.49;65.70
68525;BME280;55524;51.380;13.372;2023-03-23T15:21:22;99603.00;;;15.40;67.02
68525;BME280;55524;51.380;13.372;2023-03-23T15:23:49;99600.88;;;15.33;66.59